METAR Data
IDs: Format: Raw Decoded Include TAF

Data at: 0035 UTC 01 Mar 2021

KFNT 282353Z AUTO 23010KT 10SM BKN020 BKN027 OVC032 12/09 A2962 RMK AO2 RAB2257E18 SLP032 P0005 60005 T01170094 10144 20061 55006